Time;durP1;ratioP1;P1;durP2;ratioP2;P2;SDS_P1;SDS_P2;PMS_P1;PMS_P2;Temp;Humidity;BMP_temperature;BMP_pressure;BME280_temperature;BME280_humidity;BME280_pressure;Samples;Min_cycle;Max_cycle;Signal;HPM_P1;HPM_P2
2023/07/26 00:02:09;;;;;;;7.72;1.73;;;19.40;98.50;;;;;;4238653;28;20039;-56
2023/07/26 00:04:29;;;;;;;4.53;1.15;;;19.40;98.80;;;;;;4238513;28;20121;-56
2023/07/26 00:06:49;;;;;;;7.00;1.30;;;19.60;98.20;;;;;;4238490;28;20085;-56
2023/07/26 00:09:09;;;;;;;6.70;1.73;;;19.50;98.50;;;;;;4243539;28;20080;-56
2023/07/26 00:11:30;;;;;;;6.18;1.33;;;19.50;98.60;;;;;;4233445;28;20077;-56
2023/07/26 00:13:50;;;;;;;7.97;1.10;;;19.50;98.50;;;;;;4238434;28;20124;-56
2023/07/26 00:16:10;;;;;;;6.75;1.10;;;19.60;98.60;;;;;;4246292;28;20235;-57
2023/07/26 00:18:30;;;;;;;10.48;2.20;;;19.60;98.60;;;;;;4250757;28;20103;-56
2023/07/26 00:20:50;;;;;;;5.95;1.10;;;19.60;98.70;;;;;;4242582;28;20054;-57
2023/07/26 00:23:10;;;;;;;5.43;1.80;;;19.60;98.80;;;;;;4233695;28;20239;-56
2023/07/26 00:25:31;;;;;;;5.03;1.38;;;19.60;98.80;;;;;;4234225;28;20042;-57
2023/07/26 00:27:51;;;;;;;6.68;1.30;;;19.60;99.20;;;;;;4232155;28;20047;-56
2023/07/26 00:30:13;;;;;;;14.20;1.88;;;19.60;98.80;;;;;;4237454;28;20101;-57
2023/07/26 00:32:33;;;;;;;10.65;1.90;;;19.60;98.80;;;;;;4245259;28;20073;-56
2023/07/26 00:34:53;;;;;;;13.57;1.50;;;19.60;98.60;;;;;;4232111;28;20142;-56
2023/07/26 00:37:13;;;;;;;8.88;1.40;;;19.50;99.50;;;;;;4243211;28;20051;-56
2023/07/26 00:39:34;;;;;;;7.55;1.92;;;19.50;99.20;;;;;;4230939;28;20063;-56
2023/07/26 00:41:54;;;;;;;7.57;1.30;;;19.50;99.10;;;;;;4246493;28;20047;-56
2023/07/26 00:44:14;;;;;;;7.30;1.10;;;19.50;99.10;;;;;;4246426;28;20053;-56
2023/07/26 00:46:34;;;;;;;4.80;1.48;;;19.40;98.80;;;;;;4232022;28;20042;-56
2023/07/26 00:48:55;;;;;;;9.95;1.65;;;19.50;98.20;;;;;;4239279;28;20059;-56
2023/07/26 00:51:17;;;;;;;8.57;1.45;;;19.70;98.50;;;;;;4237334;28;20235;-56
2023/07/26 00:53:37;;;;;;;;;;;19.70;98.40;;;;;;4240171;28;20046;-56
2023/07/26 00:55:58;;;;;;;4.53;1.20;;;19.70;98.10;;;;;;4236502;28;19923;-57
2023/07/26 00:58:18;;;;;;;6.15;1.70;;;19.70;98.50;;;;;;4245800;28;20357;-56
2023/07/26 01:00:40;;;;;;;7.78;1.30;;;19.70;98.70;;;;;;4248078;28;20087;-60
2023/07/26 01:03:01;;;;;;;6.72;1.85;;;19.80;98.90;;;;;;4240469;28;20104;-60
2023/07/26 01:05:24;;;;;;;8.50;1.20;;;19.80;99.00;;;;;;4242705;28;20050;-60
2023/07/26 01:07:56;;;;;;;6.72;1.00;;;19.90;98.80;;;;;;4238373;28;20050;-60
2023/07/26 01:10:22;;;;;;;10.25;1.33;;;19.90;98.80;;;;;;4236904;28;20077;-60
2023/07/26 01:13:01;;;;;;;4.03;1.30;;;19.90;98.80;;;;;;4236442;28;20373;-60
2023/07/26 01:15:28;;;;;;;5.95;1.98;;;19.90;98.90;;;;;;4237479;28;20065;-60
2023/07/26 01:18:05;;;;;;;13.00;1.42;;;19.90;98.90;;;;;;4249355;28;20095;-60
2023/07/26 01:20:25;;;;;;;3.25;1.00;;;20.00;98.50;;;;;;4230073;28;20294;-59
2023/07/26 01:22:45;;;;;;;4.85;1.98;;;20.00;98.60;;;;;;4242660;28;20051;-60
2023/07/26 01:25:06;;;;;;;6.00;1.30;;;20.00;98.60;;;;;;4237454;28;20081;-60
2023/07/26 01:27:26;;;;;;;5.95;1.55;;;20.00;98.70;;;;;;4247457;28;20238;-60
2023/07/26 01:29:50;;;;;;;9.85;1.33;;;20.00;98.70;;;;;;4238460;28;20250;-60
2023/07/26 01:32:14;;;;;;;6.80;2.20;;;20.00;98.80;;;;;;4239996;28;20085;-60
2023/07/26 01:34:34;;;;;;;6.60;1.35;;;20.00;98.70;;;;;;4239810;28;20381;-60
2023/07/26 01:36:55;;;;;;;8.20;2.45;;;19.90;98.60;;;;;;4231227;28;20084;-59
2023/07/26 01:39:16;;;;;;;15.80;1.88;;;19.90;98.70;;;;;;4237168;28;20081;-60
2023/07/26 01:41:37;;;;;;;9.27;1.60;;;19.90;98.90;;;;;;4229341;28;20046;-60
2023/07/26 01:43:57;;;;;;;4.00;1.40;;;19.90;98.90;;;;;;4238440;28;20046;-59
2023/07/26 01:46:17;;;;;;;6.35;1.08;;;19.80;98.80;;;;;;4238787;28;20063;-59
2023/07/26 01:48:37;;;;;;;4.85;1.30;;;19.80;98.50;;;;;;4233163;28;20043;-59
2023/07/26 01:50:58;;;;;;;6.88;1.55;;;19.80;98.40;;;;;;4246282;28;20050;-60
2023/07/26 01:53:18;;;;;;;9.13;1.25;;;19.90;98.50;;;;;;4230982;28;20085;-59
2023/07/26 01:55:38;;;;;;;9.98;1.88;;;19.70;98.70;;;;;;4240342;28;20065;-60
2023/07/26 01:57:58;;;;;;;4.88;1.98;;;19.70;98.60;;;;;;4233111;28;20294;-59
2023/07/26 02:00:18;;;;;;;7.72;1.50;;;19.70;98.80;;;;;;4232766;28;20116;-60
2023/07/26 02:02:38;;;;;;;5.60;1.40;;;19.70;98.90;;;;;;4243594;28;20080;-60
2023/07/26 02:04:59;;;;;;;11.95;1.30;;;19.60;99.20;;;;;;4233972;28;20085;-60
2023/07/26 02:07:20;;;;;;;5.07;1.40;;;19.60;99.40;;;;;;4248672;28;20050;-60
2023/07/26 02:09:40;;;;;;;5.32;1.33;;;19.50;99.30;;;;;;4240494;28;20374;-60
2023/07/26 02:12:00;;;;;;;6.82;1.38;;;19.50;99.10;;;;;;4230453;28;20046;-59
2023/07/26 02:14:20;;;;;;;6.63;1.48;;;19.50;99.20;;;;;;4246206;28;20126;-60
2023/07/26 02:16:40;;;;;;;3.63;1.40;;;19.50;98.90;;;;;;4226906;28;20078;-60
2023/07/26 02:19:00;;;;;;;4.82;1.20;;;19.50;98.70;;;;;;4239221;28;20050;-60
2023/07/26 02:21:21;;;;;;;5.20;1.55;;;19.50;98.60;;;;;;4238098;28;20051;-59
2023/07/26 02:23:41;;;;;;;6.15;1.85;;;19.50;98.30;;;;;;4233344;28;20047;-59
2023/07/26 02:26:01;;;;;;;6.30;1.55;;;19.60;98.20;;;;;;4247201;28;20046;-59
2023/07/26 02:28:21;;;;;;;7.07;2.10;;;19.60;98.10;;;;;;4246129;28;20070;-60
2023/07/26 02:30:41;;;;;;;7.78;2.15;;;19.60;98.00;;;;;;4245004;28;20344;-60
2023/07/26 02:33:01;;;;;;;7.35;1.30;;;19.60;98.00;;;;;;4236501;28;20289;-60
2023/07/26 02:35:21;;;;;;;5.32;1.20;;;19.60;98.00;;;;;;4239789;28;20108;-60
2023/07/26 02:37:41;;;;;;;7.20;1.35;;;19.60;98.10;;;;;;4236078;28;20118;-60
2023/07/26 02:40:01;;;;;;;10.35;1.40;;;19.50;97.90;;;;;;4232026;28;20114;-60
2023/07/26 02:42:21;;;;;;;7.10;1.20;;;19.50;98.10;;;;;;4250704;28;20099;-59
2023/07/26 02:44:41;;;;;;;7.88;1.20;;;19.50;98.10;;;;;;4229531;28;20051;-60
2023/07/26 02:47:02;;;;;;;6.85;1.38;;;19.50;98.20;;;;;;4244498;28;20443;-59
2023/07/26 02:49:22;;;;;;;8.85;1.67;;;19.50;98.30;;;;;;4248274;28;20111;-59
2023/07/26 02:51:42;;;;;;;5.25;1.10;;;19.40;98.30;;;;;;4245435;28;20073;-59
2023/07/26 02:54:02;;;;;;;4.20;1.63;;;19.30;98.70;;;;;;4241785;28;20053;-59
2023/07/26 02:56:22;;;;;;;5.10;1.38;;;19.10;99.80;;;;;;4237620;28;20373;-59
2023/07/26 02:58:42;;;;;;;5.47;1.48;;;18.90;99.90;;;;;;4242348;28;20042;-59
2023/07/26 03:01:02;;;;;;;5.75;1.45;;;18.80;99.90;;;;;;4232818;28;20085;-59
2023/07/26 03:03:22;;;;;;;9.13;2.08;;;18.70;99.90;;;;;;4238431;28;20050;-59
2023/07/26 03:05:42;;;;;;;8.77;1.67;;;18.90;99.40;;;;;;4241878;28;20239;-59
2023/07/26 03:08:02;;;;;;;3.03;1.23;;;18.90;99.90;;;;;;4229833;28;20084;-59
2023/07/26 03:10:22;;;;;;;6.25;1.35;;;18.80;99.70;;;;;;4230905;28;20141;-60
2023/07/26 03:12:42;;;;;;;7.93;1.35;;;18.90;99.80;;;;;;4233427;28;20052;-60
2023/07/26 03:15:03;;;;;;;3.05;1.25;;;18.90;99.70;;;;;;4233212;28;20055;-59
2023/07/26 03:17:23;;;;;;;8.05;1.20;;;18.90;99.60;;;;;;4234092;28;20095;-59
2023/07/26 03:19:43;;;;;;;6.72;1.33;;;18.90;99.60;;;;;;4235406;28;20369;-59
2023/07/26 03:22:03;;;;;;;5.38;1.02;;;18.60;99.90;;;;;;4241248;28;20047;-59
2023/07/26 03:24:24;;;;;;;4.43;1.20;;;18.50;99.90;;;;;;4229821;28;20050;-59
2023/07/26 03:26:44;;;;;;;5.63;1.60;;;18.40;99.90;;;;;;4240868;28;20041;-59
2023/07/26 03:29:05;;;;;;;8.15;1.63;;;18.30;99.90;;;;;;4231357;28;20054;-59
2023/07/26 03:31:25;;;;;;;6.85;2.15;;;18.10;99.90;;;;;;4234018;28;20424;-59
2023/07/26 03:33:45;;;;;;;9.15;1.98;;;18.10;99.90;;;;;;4245760;28;20054;-59
2023/07/26 03:36:05;;;;;;;10.30;1.50;;;18.10;99.90;;;;;;4230061;28;20054;-59
2023/07/26 03:38:26;;;;;;;7.60;1.30;;;18.10;99.90;;;;;;4247895;28;20108;-59
2023/07/26 03:40:46;;;;;;;6.50;1.50;;;18.20;99.90;;;;;;4234694;28;20114;-59
2023/07/26 03:43:07;;;;;;;9.25;1.63;;;18.30;99.90;;;;;;4238004;28;20327;-59
2023/07/26 03:45:27;;;;;;;9.15;1.60;;;18.40;99.90;;;;;;4244585;28;20046;-59
2023/07/26 03:47:47;;;;;;;9.18;1.73;;;18.50;99.90;;;;;;4230925;28;20112;-59
2023/07/26 03:50:07;;;;;;;5.45;1.20;;;18.50;99.90;;;;;;4244472;28;20050;-59
2023/07/26 03:52:27;;;;;;;3.85;1.45;;;18.50;99.90;;;;;;4233319;28;20074;-59
2023/07/26 03:54:48;;;;;;;7.88;1.13;;;18.30;99.90;;;;;;4237399;28;20047;-59
2023/07/26 03:57:08;;;;;;;5.18;1.17;;;18.30;99.90;;;;;;4248760;28;20092;-59
2023/07/26 03:59:31;;;;;;;6.70;1.20;;;18.30;99.90;;;;;;4244270;28;20387;-59
2023/07/26 04:01:51;;;;;;;5.57;1.63;;;18.30;99.90;;;;;;4245517;28;20072;-59
2023/07/26 04:04:11;;;;;;;5.28;1.38;;;18.30;99.90;;;;;;4235872;28;20100;-59
2023/07/26 04:06:31;;;;;;;3.78;1.60;;;18.20;99.90;;;;;;4237512;28;20088;-59
2023/07/26 04:08:51;;;;;;;7.28;2.45;;;18.10;99.90;;;;;;4235045;28;20062;-59
2023/07/26 04:11:11;;;;;;;7.38;1.27;;;18.10;99.90;;;;;;4231504;28;20055;-59
2023/07/26 04:13:31;;;;;;;5.25;1.75;;;17.90;99.90;;;;;;4251176;28;20042;-56
2023/07/26 04:15:52;;;;;;;6.10;1.10;;;17.70;99.90;;;;;;4233331;28;20120;-56
2023/07/26 04:18:12;;;;;;;6.90;1.38;;;17.60;99.90;;;;;;4239048;28;20066;-56
2023/07/26 04:20:32;;;;;;;5.25;1.80;;;17.60;99.90;;;;;;4239122;28;20133;-56
2023/07/26 04:22:52;;;;;;;3.63;1.20;;;17.40;99.90;;;;;;4241108;28;20051;-56
2023/07/26 04:25:12;;;;;;;12.27;1.70;;;17.40;99.90;;;;;;4239808;28;20050;-56
2023/07/26 04:27:32;;;;;;;6.15;1.85;;;17.40;99.90;;;;;;4237380;28;20065;-56
2023/07/26 04:29:52;;;;;;;4.65;1.00;;;17.30;99.90;;;;;;4245167;28;20061;-56
2023/07/26 04:32:12;;;;;;;9.57;3.35;;;17.30;99.90;;;;;;4232907;28;20051;-56
2023/07/26 04:34:34;;;;;;;3.90;1.40;;;17.30;99.90;;;;;;4235949;28;20047;-56
2023/07/26 04:36:54;;;;;;;9.77;1.83;;;17.40;99.90;;;;;;4246882;28;20346;-56
2023/07/26 04:39:13;;;;;;;12.10;1.35;;;17.20;99.90;;;;;;4239629;28;20053;-56
2023/07/26 04:41:33;;;;;;;6.35;1.80;;;17.10;99.90;;;;;;4242962;27;20395;-55
2023/07/26 04:43:53;;;;;;;10.55;2.88;;;17.10;99.90;;;;;;4234464;28;20050;-56
2023/07/26 04:46:16;;;;;;;6.50;1.50;;;17.10;99.90;;;;;;4235868;28;20247;-56
2023/07/26 04:48:36;;;;;;;11.65;2.42;;;17.20;99.90;;;;;;4233386;28;20119;-56
2023/07/26 04:50:56;;;;;;;13.35;2.05;;;17.10;99.90;;;;;;4241706;28;20115;-56
2023/07/26 04:53:17;;;;;;;7.03;1.85;;;17.20;99.90;;;;;;4240261;28;20094;-56
2023/07/26 04:55:49;;;;;;;11.68;3.13;;;17.20;99.90;;;;;;4231340;28;20046;-56
2023/07/26 04:58:09;;;;;;;3.75;1.20;;;17.30;99.90;;;;;;4240716;28;20038;-56
2023/07/26 05:00:28;;;;;;;4.55;1.52;;;17.40;99.90;;;;;;4244662;28;20047;-56
2023/07/26 05:02:49;;;;;;;12.23;2.67;;;17.40;99.90;;;;;;4249632;28;20038;-56
2023/07/26 05:05:09;;;;;;;12.55;2.28;;;17.40;99.90;;;;;;4245552;28;20059;-56
2023/07/26 05:07:29;;;;;;;7.45;1.67;;;17.40;99.90;;;;;;4235606;28;20047;-56
2023/07/26 05:09:49;;;;;;;4.22;1.40;;;17.50;99.90;;;;;;4246013;28;20425;-56
2023/07/26 05:12:10;;;;;;;3.00;1.10;;;17.60;99.90;;;;;;4231183;28;20110;-56
2023/07/26 05:14:29;;;;;;;7.57;1.35;;;17.70;99.90;;;;;;4240466;28;20233;-56
2023/07/26 05:16:49;;;;;;;10.73;1.92;;;17.70;99.90;;;;;;4238839;28;20283;-56
2023/07/26 05:19:09;;;;;;;13.95;1.90;;;17.50;99.90;;;;;;4231858;28;20405;-57
2023/07/26 05:21:29;;;;;;;6.40;1.60;;;17.40;99.90;;;;;;4244789;28;20117;-57
2023/07/26 05:23:49;;;;;;;7.20;1.42;;;17.40;99.90;;;;;;4232823;28;20043;-57
2023/07/26 05:26:09;;;;;;;3.42;1.48;;;17.50;99.90;;;;;;4245960;28;20059;-57
2023/07/26 05:28:29;;;;;;;7.75;2.75;;;17.50;99.90;;;;;;4236702;28;20090;-57
2023/07/26 05:30:50;;;;;;;4.53;1.40;;;17.50;99.90;;;;;;4238651;28;20047;-57
2023/07/26 05:33:09;;;;;;;5.75;1.92;;;17.40;99.90;;;;;;4236823;28;20092;-57
2023/07/26 05:35:30;;;;;;;7.63;1.33;;;17.50;99.90;;;;;;4239135;28;20271;-57
2023/07/26 05:37:50;;;;;;;5.50;1.70;;;17.50;99.90;;;;;;4250340;28;20321;-57
2023/07/26 05:40:10;;;;;;;14.25;2.88;;;17.70;99.90;;;;;;4229000;28;20059;-57
2023/07/26 05:42:30;;;;;;;6.50;1.27;;;18.00;99.90;;;;;;4243335;28;20088;-57
2023/07/26 05:44:50;;;;;;;5.43;1.17;;;18.20;99.90;;;;;;4243474;28;20145;-57
2023/07/26 05:47:11;;;;;;;5.88;1.30;;;18.20;99.90;;;;;;4240310;28;20054;-57
2023/07/26 05:49:31;;;;;;;9.85;1.88;;;18.10;99.90;;;;;;4241977;28;20058;-57
2023/07/26 05:51:51;;;;;;;13.02;4.18;;;18.00;99.90;;;;;;4239364;28;20043;-57
2023/07/26 05:54:11;;;;;;;5.57;1.70;;;18.20;99.90;;;;;;4239373;27;20051;-57
2023/07/26 05:56:31;;;;;;;5.22;1.42;;;18.40;99.90;;;;;;4235330;28;20384;-57
2023/07/26 05:58:52;;;;;;;8.50;2.47;;;18.50;99.90;;;;;;4236881;28;20076;-58
2023/07/26 06:01:12;;;;;;;8.30;1.45;;;18.60;99.90;;;;;;4245839;28;20107;-57
2023/07/26 06:03:33;;;;;;;6.57;1.70;;;18.70;99.90;;;;;;4229066;28;20050;-57
2023/07/26 06:05:55;;;;;;;1.58;1.00;;;18.80;99.90;;;;;;4234123;28;20039;-57
2023/07/26 06:08:14;;;;;;;4.97;1.00;;;18.90;99.90;;;;;;4234510;28;20055;-57
2023/07/26 06:10:35;;;;;;;6.75;1.77;;;18.90;99.90;;;;;;4250653;28;20046;-57
2023/07/26 06:12:55;;;;;;;8.80;1.40;;;19.10;99.90;;;;;;4236560;28;20054;-57
2023/07/26 06:15:14;;;;;;;5.35;1.45;;;19.40;99.90;;;;;;4235124;28;20055;-57
2023/07/26 06:17:34;;;;;;;11.50;1.35;;;19.60;99.90;;;;;;4237785;28;20058;-57
2023/07/26 06:19:54;;;;;;;10.90;2.30;;;19.70;99.90;;;;;;4230514;28;20231;-58
2023/07/26 06:22:14;;;;;;;9.55;2.45;;;19.80;99.90;;;;;;4238245;28;20069;-57
2023/07/26 06:24:34;;;;;;;3.63;1.48;;;19.90;99.90;;;;;;4232952;28;20099;-57
2023/07/26 06:26:55;;;;;;;5.63;1.33;;;20.20;99.90;;;;;;4229952;28;20047;-57
2023/07/26 06:29:14;;;;;;;7.15;1.48;;;20.20;99.90;;;;;;4251611;28;20050;-57
2023/07/26 06:31:37;;;;;;;7.35;1.38;;;20.30;99.90;;;;;;4229753;28;20047;-56
2023/07/26 06:33:58;;;;;;;6.43;1.70;;;20.50;99.90;;;;;;4244370;28;20350;-57
2023/07/26 06:36:19;;;;;;;4.90;1.58;;;20.70;99.90;;;;;;4233685;28;20085;-57
2023/07/26 06:38:39;;;;;;;7.47;1.38;;;21.00;99.90;;;;;;4235205;28;20088;-57
2023/07/26 06:41:00;;;;;;;4.30;1.20;;;21.00;99.90;;;;;;4231830;28;20058;-57
2023/07/26 06:43:20;;;;;;;5.68;1.75;;;21.20;99.90;;;;;;4228358;28;20047;-57
2023/07/26 06:45:50;;;;;;;2.53;1.65;;;21.60;99.90;;;;;;4241405;28;20107;-57
2023/07/26 06:48:10;;;;;;;7.00;1.90;;;21.80;99.90;;;;;;4242268;28;20145;-57
2023/07/26 06:50:30;;;;;;;4.82;1.10;;;22.20;99.20;;;;;;4239906;28;20138;-57
2023/07/26 06:52:50;;;;;;;5.38;0.90;;;22.30;98.60;;;;;;4250003;28;20443;-57
2023/07/26 06:55:10;;;;;;;9.35;1.10;;;22.20;98.40;;;;;;4225923;28;20113;-57
2023/07/26 06:57:30;;;;;;;10.07;1.65;;;22.20;99.60;;;;;;4240564;28;20256;-57
2023/07/26 06:59:50;;;;;;;3.97;1.17;;;22.50;99.80;;;;;;4235852;28;20043;-58
2023/07/26 07:02:11;;;;;;;8.13;1.00;;;22.80;99.30;;;;;;4252807;28;20305;-58
2023/07/26 07:04:33;;;;;;;6.28;1.55;;;22.80;96.80;;;;;;4230737;28;20066;-57
2023/07/26 07:06:53;;;;;;;2.50;0.90;;;22.40;97.20;;;;;;4247436;28;20081;-57
2023/07/26 07:09:15;;;;;;;4.38;0.90;;;22.40;97.50;;;;;;4252406;28;20144;-58
2023/07/26 07:11:35;;;;;;;8.07;1.23;;;22.40;97.30;;;;;;4241209;28;20096;-57
2023/07/26 07:13:56;;;;;;;10.52;1.52;;;22.60;97.10;;;;;;4247762;28;20058;-57
2023/07/26 07:16:16;;;;;;;4.00;0.93;;;22.60;96.50;;;;;;4242278;28;20046;-57
2023/07/26 07:18:36;;;;;;;4.07;0.80;;;22.70;97.50;;;;;;4242879;28;20088;-57
2023/07/26 07:20:58;;;;;;;3.58;1.02;;;23.00;97.70;;;;;;4239361;28;20043;-57
2023/07/26 07:23:18;;;;;;;10.30;1.20;;;23.20;96.80;;;;;;4237415;28;20051;-58
2023/07/26 07:25:38;;;;;;;4.95;0.80;;;23.40;96.00;;;;;;4247634;28;20321;-57
2023/07/26 07:27:58;;;;;;;5.90;1.00;;;23.70;96.30;;;;;;4232275;28;20412;-57
2023/07/26 07:30:18;;;;;;;3.10;0.70;;;23.60;95.60;;;;;;4235856;28;20076;-57
2023/07/26 07:32:39;;;;;;;6.40;1.20;;;23.40;94.60;;;;;;4248069;28;20365;-57
2023/07/26 07:34:59;;;;;;;4.85;0.90;;;23.10;94.60;;;;;;4252356;28;20054;-57
2023/07/26 07:37:20;;;;;;;2.80;0.80;;;23.20;94.20;;;;;;4240756;28;20129;-57
2023/07/26 07:39:40;;;;;;;3.15;0.90;;;23.20;94.30;;;;;;4242588;28;20399;-57
2023/07/26 07:42:01;;;;;;;4.30;1.27;;;23.20;93.10;;;;;;4240209;28;20058;-57
2023/07/26 07:44:21;;;;;;;3.78;0.80;;;23.50;94.90;;;;;;4236892;28;20051;-57
2023/07/26 07:46:44;;;;;;;3.53;0.90;;;23.30;93.90;;;;;;4241085;28;20054;-57
2023/07/26 07:49:21;;;;;;;5.55;0.80;;;23.10;93.30;;;;;;4239850;28;20079;-57
2023/07/26 07:51:41;;;;;;;9.27;1.20;;;23.50;93.30;;;;;;4234299;28;20050;-57
2023/07/26 07:54:00;;;;;;;3.28;0.80;;;23.80;94.00;;;;;;4239929;28;20071;-57
2023/07/26 07:56:20;;;;;;;1.95;0.90;;;23.90;93.80;;;;;;4234642;28;20133;-57
2023/07/26 07:58:41;;;;;;;2.55;0.70;;;23.80;93.10;;;;;;4248492;28;20066;-57
2023/07/26 08:01:01;;;;;;;5.90;1.13;;;23.90;94.80;;;;;;4236016;28;20050;-57
2023/07/26 08:03:21;;;;;;;2.15;0.70;;;24.20;93.30;;;;;;4235175;28;20054;-57
2023/07/26 08:05:41;;;;;;;6.57;1.20;;;24.10;93.80;;;;;;4246613;28;20076;-57
2023/07/26 08:08:01;;;;;;;3.53;0.88;;;24.40;93.80;;;;;;4231522;28;20115;-57
2023/07/26 08:10:21;;;;;;;5.78;2.03;;;24.60;95.40;;;;;;4242505;28;20104;-55
2023/07/26 08:12:42;;;;;;;4.13;0.60;;;25.20;93.30;;;;;;4237519;28;20051;-55
2023/07/26 08:15:02;;;;;;;1.60;0.70;;;25.30;92.50;;;;;;4235953;28;20297;-56
2023/07/26 08:17:22;;;;;;;4.30;0.88;;;25.50;91.90;;;;;;4246211;28;20053;-55
2023/07/26 08:19:41;;;;;;;5.63;0.90;;;25.30;92.10;;;;;;4235347;28;20062;-55
2023/07/26 08:22:02;;;;;;;2.28;0.88;;;25.50;92.20;;;;;;4236530;28;20294;-55
2023/07/26 08:24:23;;;;;;;3.00;0.70;;;25.30;91.90;;;;;;4244438;28;20042;-55
2023/07/26 08:26:43;;;;;;;3.65;0.70;;;25.50;91.40;;;;;;4244388;28;20428;-55
2023/07/26 08:29:04;;;;;;;3.40;0.70;;;25.10;90.90;;;;;;4239451;28;20137;-54
2023/07/26 08:31:24;;;;;;;2.70;1.00;;;25.00;90.90;;;;;;4237886;28;20046;-55
2023/07/26 08:33:44;;;;;;;5.72;1.40;;;24.70;91.50;;;;;;4248839;28;20287;-55
2023/07/26 08:36:04;;;;;;;3.10;0.70;;;25.20;92.40;;;;;;4228318;28;20385;-55
2023/07/26 08:38:25;;;;;;;2.13;0.70;;;25.50;91.90;;;;;;4239698;28;20076;-55
2023/07/26 08:40:50;;;;;;;3.75;0.70;;;26.00;91.80;;;;;;4242078;28;20046;-55
2023/07/26 08:43:10;;;;;;;3.50;1.08;;;25.80;89.90;;;;;;4240219;28;20077;-54
2023/07/26 08:45:32;;;;;;;2.00;0.70;;;25.40;90.30;;;;;;4242820;28;20062;-55
2023/07/26 08:47:53;;;;;;;1.85;0.70;;;24.80;91.40;;;;;;4235795;28;20051;-55
2023/07/26 08:50:14;;;;;;;2.50;0.70;;;24.70;91.40;;;;;;4235876;28;20111;-55
2023/07/26 08:52:34;;;;;;;1.58;0.70;;;25.20;90.70;;;;;;4233552;28;20084;-55
2023/07/26 08:54:54;;;;;;;2.78;0.90;;;25.70;91.80;;;;;;4234830;28;20055;-55
2023/07/26 08:57:18;;;;;;;5.63;0.63;;;26.20;91.80;;;;;;4248641;28;20282;-55
2023/07/26 08:59:39;;;;;;;4.70;0.60;;;26.30;90.00;;;;;;4231657;28;20043;-55
2023/07/26 09:02:03;;;;;;;2.65;0.70;;;26.20;90.00;;;;;;4241345;28;20091;-55
2023/07/26 09:04:25;;;;;;;2.80;0.60;;;26.20;90.40;;;;;;4235521;28;20107;-55
2023/07/26 09:06:48;;;;;;;6.18;0.70;;;26.70;90.50;;;;;;4246476;28;20113;-55
2023/07/26 09:09:07;;;;;;;4.15;0.70;;;27.00;90.60;;;;;;4236481;28;20082;-55
2023/07/26 09:11:27;;;;;;;1.30;0.70;;;27.20;87.20;;;;;;4238330;28;20046;-55
2023/07/26 09:13:55;;;;;;;5.28;0.70;;;26.80;88.60;;;;;;4236752;28;20059;-55
2023/07/26 09:16:16;;;;;;;3.05;0.98;;;26.60;88.00;;;;;;4233195;28;20054;-55
2023/07/26 09:18:54;;;;;;;4.68;0.63;;;26.50;88.70;;;;;;4237471;28;20058;-55
2023/07/26 09:21:14;;;;;;;1.80;0.60;;;27.00;90.60;;;;;;4238122;28;20051;-55
2023/07/26 09:23:45;;;;;;;4.88;0.70;;;26.90;86.90;;;;;;4249039;28;20234;-55
2023/07/26 09:26:11;;;;;;;1.65;0.77;;;27.00;88.50;;;;;;4236791;28;20085;-55
2023/07/26 09:28:32;;;;;;;2.95;0.60;;;27.10;89.20;;;;;;4234441;27;20108;-55
2023/07/26 09:30:52;;;;;;;4.53;0.60;;;27.20;89.90;;;;;;4244666;28;20400;-56
2023/07/26 09:33:12;;;;;;;3.47;0.60;;;27.70;91.10;;;;;;4231943;28;20416;-56
2023/07/26 09:35:43;;;;;;;3.80;0.60;;;28.20;90.00;;;;;;4242620;28;20033;-56
2023/07/26 09:38:16;;;;;;;1.73;0.60;;;28.30;88.40;;;;;;4231975;28;20051;-55
2023/07/26 09:40:36;;;;;;;1.80;0.50;;;28.10;87.10;;;;;;4237864;27;20076;-55
2023/07/26 09:42:58;;;;;;;2.97;0.63;;;27.90;87.10;;;;;;4241966;28;20051;-55
2023/07/26 09:45:19;;;;;;;3.50;0.70;;;27.40;85.70;;;;;;4239366;28;20113;-55
2023/07/26 09:47:39;;;;;;;2.67;0.67;;;27.70;90.10;;;;;;4246406;28;20050;-56
2023/07/26 09:50:00;;;;;;;2.33;0.60;;;28.10;89.40;;;;;;4244080;28;20051;-55
2023/07/26 09:52:23;;;;;;;2.95;0.60;;;28.30;85.80;;;;;;4235807;28;20067;-55
2023/07/26 09:54:45;;;;;;;3.22;0.60;;;27.80;86.70;;;;;;4242490;28;20058;-54
2023/07/26 09:57:09;;;;;;;2.95;0.60;;;27.30;85.10;;;;;;4238570;28;20088;-55
2023/07/26 09:59:36;;;;;;;2.25;0.60;;;27.50;84.80;;;;;;4245663;28;20096;-55
2023/07/26 10:02:07;;;;;;;2.35;0.60;;;27.60;86.50;;;;;;4232905;28;20055;-55
2023/07/26 10:04:48;;;;;;;1.88;0.80;;;27.90;89.40;;;;;;4240181;28;20357;-55
2023/07/26 10:07:13;;;;;;;2.35;0.70;;;28.10;88.20;;;;;;4237993;27;20058;-56
2023/07/26 10:09:34;;;;;;;2.63;0.60;;;28.30;86.30;;;;;;4217298;28;20083;-56
2023/07/26 10:11:57;;;;;;;1.17;0.50;;;28.40;85.40;;;;;;4245147;28;20113;-55
2023/07/26 10:14:19;;;;;;;3.20;0.60;;;28.30;86.90;;;;;;4244917;28;20111;-55
2023/07/26 10:16:39;;;;;;;3.33;0.60;;;28.80;85.60;;;;;;4234051;28;20089;-55
2023/07/26 10:19:02;;;;;;;1.88;0.73;;;29.00;82.40;;;;;;4244374;28;20095;-55
2023/07/26 10:21:23;;;;;;;1.60;0.50;;;29.00;85.40;;;;;;4240891;28;20043;-55
2023/07/26 10:23:44;;;;;;;2.38;0.80;;;29.40;83.50;;;;;;4235448;28;20054;-56
2023/07/26 10:26:05;;;;;;;2.38;0.60;;;29.40;84.00;;;;;;4239115;28;20116;-55
2023/07/26 10:28:25;;;;;;;3.88;0.77;;;29.50;84.20;;;;;;4240679;28;20088;-55
2023/07/26 10:30:46;;;;;;;4.47;0.90;;;29.60;81.60;;;;;;4244482;28;20084;-56
2023/07/26 10:33:13;;;;;;;0.82;0.55;;;29.30;81.70;;;;;;4234217;28;20074;-56
2023/07/26 10:35:34;;;;;;;2.15;0.60;;;28.90;80.90;;;;;;4242928;28;20050;-55
2023/07/26 10:37:57;;;;;;;1.70;0.60;;;28.80;82.80;;;;;;4242866;28;20062;-55
2023/07/26 10:40:36;;;;;;;1.05;0.57;;;29.00;80.90;;;;;;4233038;28;20075;-55
2023/07/26 10:42:56;;;;;;;1.35;0.57;;;28.70;80.00;;;;;;4246754;28;20058;-55
2023/07/26 10:45:41;;;;;;;2.03;0.50;;;28.30;78.90;;;;;;4237898;28;20278;-55
2023/07/26 10:48:00;;;;;;;1.48;0.50;;;28.50;81.00;;;;;;4239111;28;20070;-55
2023/07/26 10:50:24;;;;;;;1.15;0.73;;;29.00;79.30;;;;;;4241958;28;20101;-56
2023/07/26 10:52:44;;;;;;;0.90;0.63;;;29.10;79.00;;;;;;4240660;28;20077;-55
2023/07/26 10:55:23;;;;;;;0.90;0.50;;;29.20;78.70;;;;;;4238544;28;20066;-55
2023/07/26 10:57:50;;;;;;;0.50;0.50;;;29.30;80.70;;;;;;4237514;28;20047;-55
2023/07/26 11:00:10;;;;;;;2.70;0.50;;;29.00;78.70;;;;;;4247998;28;20100;-55
2023/07/26 11:02:45;;;;;;;0.93;0.50;;;28.70;79.50;;;;;;4230748;28;20093;-55
2023/07/26 11:05:10;;;;;;;1.33;0.50;;;29.40;83.20;;;;;;4239217;28;20081;-55
2023/07/26 11:08:02;;;;;;;1.13;0.45;;;29.90;79.10;;;;;;4249458;28;20078;-55
2023/07/26 11:10:24;;;;;;;2.27;0.50;;;29.60;76.80;;;;;;4231894;28;20258;-55
2023/07/26 11:12:47;;;;;;;1.42;0.50;;;30.00;78.10;;;;;;4244587;28;20050;-56
2023/07/26 11:15:07;;;;;;;0.50;0.43;;;29.80;74.20;;;;;;4241864;28;20119;-55
2023/07/26 11:17:47;;;;;;;3.45;1.02;;;29.90;76.20;;;;;;4234225;28;20038;-55
2023/07/26 11:20:10;;;;;;;1.80;0.50;;;30.00;76.70;;;;;;4238888;28;20111;-55
2023/07/26 11:22:30;;;;;;;0.60;0.40;;;30.40;75.90;;;;;;4241274;28;20054;-55
2023/07/26 11:24:50;;;;;;;1.02;0.50;;;30.30;70.40;;;;;;4233474;28;20137;-56
2023/07/26 11:27:11;;;;;;;1.48;0.50;;;30.60;73.60;;;;;;4230197;28;20123;-55
2023/07/26 11:29:32;;;;;;;1.15;0.50;;;30.80;73.90;;;;;;4242055;28;20087;-55
2023/07/26 11:31:52;;;;;;;0.50;0.40;;;30.50;73.40;;;;;;4246090;28;20051;-55
2023/07/26 11:34:14;;;;;;;0.90;0.50;;;30.30;74.00;;;;;;4246321;28;20050;-55
2023/07/26 11:36:34;;;;;;;3.55;0.50;;;29.90;76.60;;;;;;4238154;28;20055;-55
2023/07/26 11:38:55;;;;;;;2.95;0.40;;;29.60;79.30;;;;;;4237925;28;20046;-55
2023/07/26 11:41:19;;;;;;;3.70;0.70;;;29.20;79.80;;;;;;4239069;27;20050;-56
2023/07/26 11:43:39;;;;;;;3.90;0.50;;;28.90;79.70;;;;;;4233611;28;20118;-56
2023/07/26 11:45:59;;;;;;;2.80;0.82;;;28.30;80.50;;;;;;4248996;28;20047;-55
2023/07/26 11:48:20;;;;;;;0.57;0.50;;;28.20;78.90;;;;;;4222960;28;20038;-55
2023/07/26 11:50:40;;;;;;;2.35;0.50;;;28.50;81.10;;;;;;4228943;28;20055;-56
2023/07/26 11:53:08;;;;;;;3.65;0.50;;;28.70;81.00;;;;;;4247947;28;20078;-55
2023/07/26 11:55:29;;;;;;;1.75;0.50;;;28.70;83.30;;;;;;4240371;28;20087;-55
2023/07/26 11:57:50;;;;;;;0.70;0.63;;;28.60;81.40;;;;;;4243875;28;20369;-55
2023/07/26 12:00:11;;;;;;;0.82;0.55;;;28.90;83.50;;;;;;4237860;28;20047;-54
2023/07/26 12:02:31;;;;;;;0.77;0.50;;;28.70;84.10;;;;;;4241565;28;20114;-55
2023/07/26 12:05:13;;;;;;;2.65;0.50;;;28.80;84.00;;;;;;4238069;28;20099;-55
2023/07/26 12:07:33;;;;;;;1.27;0.70;;;28.30;84.80;;;;;;4241024;28;20165;-55
2023/07/26 12:09:54;;;;;;;0.68;0.50;;;28.70;86.70;;;;;;4239829;28;20264;-55
2023/07/26 12:12:14;;;;;;;1.27;0.50;;;29.10;84.10;;;;;;4232621;28;20050;-55
2023/07/26 12:14:34;;;;;;;0.60;0.50;;;29.40;82.20;;;;;;4235972;28;20077;-55
2023/07/26 12:16:54;;;;;;;0.88;0.50;;;29.60;84.00;;;;;;4245579;28;20383;-55